sensor_id;sensor_type;location;lat;lon;timestamp;P1;durP1;ratioP1;P2;durP2;ratioP2
11006;SDS011;8186;57.652;11.968;2022-10-03T00:04:04;1.40;;;1.30;;
11006;SDS011;8186;57.652;11.968;2022-10-03T00:06:40;1.60;;;1.50;;
11006;SDS011;8186;57.652;11.968;2022-10-03T00:09:17;3.27;;;1.50;;
11006;SDS011;8186;57.652;11.968;2022-10-03T00:11:56;2.60;;;1.50;;
11006;SDS011;8186;57.652;11.968;2022-10-03T00:14:30;1.53;;;1.43;;
11006;SDS011;8186;57.652;11.968;2022-10-03T00:17:01;2.87;;;1.73;;
11006;SDS011;8186;57.652;11.968;2022-10-03T00:19:37;2.00;;;1.63;;
11006;SDS011;8186;57.652;11.968;2022-10-03T00:22:14;3.13;;;1.80;;
11006;SDS011;8186;57.652;11.968;2022-10-03T00:24:52;2.53;;;1.63;;
11006;SDS011;8186;57.652;11.968;2022-10-03T00:27:26;2.60;;;1.70;;
11006;SDS011;8186;57.652;11.968;2022-10-03T00:30:03;2.13;;;1.80;;
11006;SDS011;8186;57.652;11.968;2022-10-03T00:32:43;3.43;;;1.53;;
11006;SDS011;8186;57.652;11.968;2022-10-03T00:35:20;2.27;;;1.97;;
11006;SDS011;8186;57.652;11.968;2022-10-03T00:38:03;2.33;;;1.40;;
11006;SDS011;8186;57.652;11.968;2022-10-03T00:40:51;2.60;;;1.73;;
11006;SDS011;8186;57.652;11.968;2022-10-03T00:49:38;2.37;;;1.90;;
11006;SDS011;8186;57.652;11.968;2022-10-03T00:52:21;2.47;;;2.27;;
11006;SDS011;8186;57.652;11.968;2022-10-03T00:55:02;5.10;;;2.90;;
11006;SDS011;8186;57.652;11.968;2022-10-03T00:57:44;6.23;;;2.97;;
11006;SDS011;8186;57.652;11.968;2022-10-03T01:00:23;4.50;;;2.90;;
11006;SDS011;8186;57.652;11.968;2022-10-03T01:02:58;3.53;;;2.53;;
11006;SDS011;8186;57.652;11.968;2022-10-03T01:05:35;2.93;;;2.70;;
11006;SDS011;8186;57.652;11.968;2022-10-03T01:08:27;4.27;;;3.30;;
11006;SDS011;8186;57.652;11.968;2022-10-03T01:11:05;3.27;;;2.70;;
11006;SDS011;8186;57.652;11.968;2022-10-03T01:13:39;2.77;;;2.40;;
11006;SDS011;8186;57.652;11.968;2022-10-03T01:16:15;2.70;;;2.13;;
11006;SDS011;8186;57.652;11.968;2022-10-03T01:18:53;3.80;;;2.73;;
11006;SDS011;8186;57.652;11.968;2022-10-03T01:21:31;2.27;;;2.07;;
11006;SDS011;8186;57.652;11.968;2022-10-03T01:27:04;2.70;;;2.13;;
11006;SDS011;8186;57.652;11.968;2022-10-03T01:29:42;2.20;;;2.00;;
11006;SDS011;8186;57.652;11.968;2022-10-03T01:32:29;2.30;;;2.10;;
11006;SDS011;8186;57.652;11.968;2022-10-03T01:35:02;2.43;;;2.00;;
11006;SDS011;8186;57.652;11.968;2022-10-03T01:37:37;3.00;;;1.87;;
11006;SDS011;8186;57.652;11.968;2022-10-03T01:40:12;2.57;;;1.97;;
11006;SDS011;8186;57.652;11.968;2022-10-03T01:42:51;3.83;;;1.77;;
11006;SDS011;8186;57.652;11.968;2022-10-03T01:45:29;2.97;;;1.90;;
11006;SDS011;8186;57.652;11.968;2022-10-03T01:47:59;2.67;;;1.90;;
11006;SDS011;8186;57.652;11.968;2022-10-03T01:50:29;1.80;;;1.70;;
11006;SDS011;8186;57.652;11.968;2022-10-03T01:53:02;2.47;;;2.13;;
11006;SDS011;8186;57.652;11.968;2022-10-03T01:55:34;2.97;;;2.03;;
11006;SDS011;8186;57.652;11.968;2022-10-03T01:58:06;3.17;;;2.30;;
11006;SDS011;8186;57.652;11.968;2022-10-03T02:00:41;8.23;;;2.90;;
11006;SDS011;8186;57.652;11.968;2022-10-03T02:03:13;3.70;;;3.40;;
11006;SDS011;8186;57.652;11.968;2022-10-03T02:05:46;4.43;;;3.07;;
11006;SDS011;8186;57.652;11.968;2022-10-03T02:08:20;3.37;;;2.70;;
11006;SDS011;8186;57.652;11.968;2022-10-03T02:10:52;3.27;;;2.60;;
11006;SDS011;8186;57.652;11.968;2022-10-03T02:13:24;2.60;;;2.40;;
11006;SDS011;8186;57.652;11.968;2022-10-03T02:16:00;3.07;;;2.40;;
11006;SDS011;8186;57.652;11.968;2022-10-03T02:18:35;4.63;;;2.77;;
11006;SDS011;8186;57.652;11.968;2022-10-03T02:21:10;3.97;;;2.50;;
11006;SDS011;8186;57.652;11.968;2022-10-03T02:23:40;3.27;;;2.07;;
11006;SDS011;8186;57.652;11.968;2022-10-03T02:26:19;3.30;;;2.00;;
11006;SDS011;8186;57.652;11.968;2022-10-03T02:29:16;2.13;;;2.00;;
11006;SDS011;8186;57.652;11.968;2022-10-03T02:32:19;2.20;;;1.80;;
11006;SDS011;8186;57.652;11.968;2022-10-03T02:35:12;2.47;;;2.20;;
11006;SDS011;8186;57.652;11.968;2022-10-03T02:37:58;2.17;;;1.97;;
11006;SDS011;8186;57.652;11.968;2022-10-03T02:43:43;5.20;;;2.10;;
11006;SDS011;8186;57.652;11.968;2022-10-03T02:46:43;3.60;;;2.40;;
11006;SDS011;8186;57.652;11.968;2022-10-03T02:49:46;4.40;;;2.50;;
11006;SDS011;8186;57.652;11.968;2022-10-03T02:55:41;2.33;;;2.10;;
11006;SDS011;8186;57.652;11.968;2022-10-03T02:58:39;2.87;;;1.90;;
11006;SDS011;8186;57.652;11.968;2022-10-03T03:01:37;2.23;;;2.00;;
11006;SDS011;8186;57.652;11.968;2022-10-03T03:04:36;3.20;;;2.23;;
11006;SDS011;8186;57.652;11.968;2022-10-03T03:10:21;3.47;;;2.30;;
11006;SDS011;8186;57.652;11.968;2022-10-03T03:16:14;2.30;;;2.00;;
11006;SDS011;8186;57.652;11.968;2022-10-03T03:19:09;2.50;;;2.30;;
11006;SDS011;8186;57.652;11.968;2022-10-03T03:21:41;3.87;;;2.00;;
11006;SDS011;8186;57.652;11.968;2022-10-03T03:24:17;2.27;;;2.00;;
11006;SDS011;8186;57.652;11.968;2022-10-03T03:27:03;4.00;;;2.20;;
11006;SDS011;8186;57.652;11.968;2022-10-03T03:29:41;3.20;;;2.00;;
11006;SDS011;8186;57.652;11.968;2022-10-03T03:32:15;2.33;;;1.67;;
11006;SDS011;8186;57.652;11.968;2022-10-03T03:34:54;3.37;;;1.73;;
11006;SDS011;8186;57.652;11.968;2022-10-03T03:37:27;4.77;;;1.67;;
11006;SDS011;8186;57.652;11.968;2022-10-03T03:40:05;1.93;;;1.80;;
11006;SDS011;8186;57.652;11.968;2022-10-03T03:45:35;2.77;;;2.10;;
11006;SDS011;8186;57.652;11.968;2022-10-03T03:48:15;1.80;;;1.70;;
11006;SDS011;8186;57.652;11.968;2022-10-03T03:51:00;3.33;;;1.80;;
11006;SDS011;8186;57.652;11.968;2022-10-03T03:53:40;1.80;;;1.70;;
11006;SDS011;8186;57.652;11.968;2022-10-03T03:56:31;2.97;;;2.00;;
11006;SDS011;8186;57.652;11.968;2022-10-03T03:59:08;1.90;;;1.80;;
11006;SDS011;8186;57.652;11.968;2022-10-03T04:01:46;3.17;;;1.63;;
11006;SDS011;8186;57.652;11.968;2022-10-03T04:04:27;5.00;;;2.07;;
11006;SDS011;8186;57.652;11.968;2022-10-03T04:07:14;2.03;;;1.93;;
11006;SDS011;8186;57.652;11.968;2022-10-03T04:12:50;1.67;;;1.57;;
11006;SDS011;8186;57.652;11.968;2022-10-03T04:15:30;5.30;;;2.07;;
11006;SDS011;8186;57.652;11.968;2022-10-03T04:18:04;2.87;;;2.10;;
11006;SDS011;8186;57.652;11.968;2022-10-03T04:21:02;2.30;;;1.97;;
11006;SDS011;8186;57.652;11.968;2022-10-03T04:23:42;2.53;;;2.20;;
11006;SDS011;8186;57.652;11.968;2022-10-03T04:26:29;3.90;;;2.97;;
11006;SDS011;8186;57.652;11.968;2022-10-03T04:29:17;4.90;;;1.87;;
11006;SDS011;8186;57.652;11.968;2022-10-03T04:32:05;3.87;;;1.83;;
11006;SDS011;8186;57.652;11.968;2022-10-03T04:34:43;2.00;;;1.57;;
11006;SDS011;8186;57.652;11.968;2022-10-03T04:37:20;2.23;;;1.70;;
11006;SDS011;8186;57.652;11.968;2022-10-03T04:39:56;2.83;;;2.00;;
11006;SDS011;8186;57.652;11.968;2022-10-03T04:42:35;2.60;;;1.90;;
11006;SDS011;8186;57.652;11.968;2022-10-03T04:45:26;2.17;;;1.90;;
11006;SDS011;8186;57.652;11.968;2022-10-03T04:47:58;2.00;;;1.90;;
11006;SDS011;8186;57.652;11.968;2022-10-03T04:50:32;2.07;;;1.83;;
11006;SDS011;8186;57.652;11.968;2022-10-03T04:55:48;3.97;;;1.60;;
11006;SDS011;8186;57.652;11.968;2022-10-03T04:58:23;2.27;;;1.73;;
11006;SDS011;8186;57.652;11.968;2022-10-03T05:01:02;1.70;;;1.60;;
11006;SDS011;8186;57.652;11.968;2022-10-03T05:03:38;1.87;;;1.73;;
11006;SDS011;8186;57.652;11.968;2022-10-03T05:06:16;4.63;;;1.47;;
11006;SDS011;8186;57.652;11.968;2022-10-03T05:08:50;2.63;;;1.80;;
11006;SDS011;8186;57.652;11.968;2022-10-03T05:11:26;2.30;;;1.50;;
11006;SDS011;8186;57.652;11.968;2022-10-03T05:14:06;2.20;;;2.00;;
11006;SDS011;8186;57.652;11.968;2022-10-03T05:16:38;2.80;;;1.70;;
11006;SDS011;8186;57.652;11.968;2022-10-03T05:19:14;2.50;;;1.73;;
11006;SDS011;8186;57.652;11.968;2022-10-03T05:22:09;2.23;;;1.80;;
11006;SDS011;8186;57.652;11.968;2022-10-03T05:24:46;2.40;;;1.77;;
11006;SDS011;8186;57.652;11.968;2022-10-03T05:27:21;1.53;;;1.33;;
11006;SDS011;8186;57.652;11.968;2022-10-03T05:29:51;1.93;;;1.83;;
11006;SDS011;8186;57.652;11.968;2022-10-03T05:32:29;3.37;;;1.83;;
11006;SDS011;8186;57.652;11.968;2022-10-03T05:35:11;1.73;;;1.63;;
11006;SDS011;8186;57.652;11.968;2022-10-03T05:37:49;1.60;;;1.50;;
11006;SDS011;8186;57.652;11.968;2022-10-03T05:40:41;2.50;;;1.50;;
11006;SDS011;8186;57.652;11.968;2022-10-03T05:43:14;2.90;;;1.97;;
11006;SDS011;8186;57.652;11.968;2022-10-03T05:45:53;2.20;;;2.00;;
11006;SDS011;8186;57.652;11.968;2022-10-03T05:48:30;2.90;;;1.80;;
11006;SDS011;8186;57.652;11.968;2022-10-03T05:51:10;3.43;;;1.67;;
11006;SDS011;8186;57.652;11.968;2022-10-03T05:54:29;2.00;;;1.73;;
11006;SDS011;8186;57.652;11.968;2022-10-03T05:57:23;1.57;;;1.47;;
11006;SDS011;8186;57.652;11.968;2022-10-03T06:00:12;2.43;;;1.70;;
11006;SDS011;8186;57.652;11.968;2022-10-03T06:08:54;3.70;;;1.70;;
11006;SDS011;8186;57.652;11.968;2022-10-03T06:11:59;2.50;;;1.50;;
11006;SDS011;8186;57.652;11.968;2022-10-03T06:17:27;2.93;;;2.20;;
11006;SDS011;8186;57.652;11.968;2022-10-03T06:20:11;2.47;;;2.17;;
11006;SDS011;8186;57.652;11.968;2022-10-03T06:23:11;2.37;;;2.03;;
11006;SDS011;8186;57.652;11.968;2022-10-03T06:25:58;2.03;;;1.80;;
11006;SDS011;8186;57.652;11.968;2022-10-03T06:31:56;4.70;;;2.20;;
11006;SDS011;8186;57.652;11.968;2022-10-03T06:34:42;3.43;;;2.20;;
11006;SDS011;8186;57.652;11.968;2022-10-03T06:37:27;2.40;;;2.20;;
11006;SDS011;8186;57.652;11.968;2022-10-03T06:43:15;3.03;;;2.43;;
11006;SDS011;8186;57.652;11.968;2022-10-03T06:46:12;6.53;;;2.73;;
11006;SDS011;8186;57.652;11.968;2022-10-03T06:52:01;7.50;;;3.37;;
11006;SDS011;8186;57.652;11.968;2022-10-03T06:54:57;4.60;;;3.13;;
11006;SDS011;8186;57.652;11.968;2022-10-03T07:00:54;4.07;;;3.10;;
11006;SDS011;8186;57.652;11.968;2022-10-03T07:03:39;4.40;;;3.10;;
11006;SDS011;8186;57.652;11.968;2022-10-03T07:12:23;6.70;;;3.63;;
11006;SDS011;8186;57.652;11.968;2022-10-03T07:18:29;8.53;;;3.23;;
11006;SDS011;8186;57.652;11.968;2022-10-03T07:21:22;7.67;;;3.77;;
11006;SDS011;8186;57.652;11.968;2022-10-03T07:23:58;9.57;;;3.80;;
11006;SDS011;8186;57.652;11.968;2022-10-03T07:26:50;7.27;;;3.40;;
11006;SDS011;8186;57.652;11.968;2022-10-03T07:29:40;7.00;;;3.60;;
11006;SDS011;8186;57.652;11.968;2022-10-03T07:32:25;9.53;;;3.50;;
11006;SDS011;8186;57.652;11.968;2022-10-03T07:41:30;5.30;;;3.40;;
11006;SDS011;8186;57.652;11.968;2022-10-03T07:44:14;11.87;;;4.20;;
11006;SDS011;8186;57.652;11.968;2022-10-03T07:47:14;10.30;;;4.13;;
11006;SDS011;8186;57.652;11.968;2022-10-03T07:50:01;8.13;;;5.67;;
11006;SDS011;8186;57.652;11.968;2022-10-03T07:55:43;14.67;;;6.97;;
11006;SDS011;8186;57.652;11.968;2022-10-03T07:58:30;8.10;;;4.80;;
11006;SDS011;8186;57.652;11.968;2022-10-03T08:01:20;9.23;;;4.40;;
11006;SDS011;8186;57.652;11.968;2022-10-03T08:04:00;9.27;;;4.73;;
11006;SDS011;8186;57.652;11.968;2022-10-03T08:06:40;12.33;;;4.13;;
11006;SDS011;8186;57.652;11.968;2022-10-03T08:15:02;9.97;;;3.20;;
11006;SDS011;8186;57.652;11.968;2022-10-03T08:20:50;6.10;;;2.67;;
11006;SDS011;8186;57.652;11.968;2022-10-03T08:26:39;11.23;;;2.07;;
11006;SDS011;8186;57.652;11.968;2022-10-03T08:29:41;3.90;;;1.60;;
11006;SDS011;8186;57.652;11.968;2022-10-03T08:32:44;3.03;;;1.60;;
11006;SDS011;8186;57.652;11.968;2022-10-03T08:38:47;3.87;;;0.90;;
11006;SDS011;8186;57.652;11.968;2022-10-03T08:44:32;2.80;;;1.00;;
11006;SDS011;8186;57.652;11.968;2022-10-03T08:50:40;5.90;;;1.17;;
11006;SDS011;8186;57.652;11.968;2022-10-03T08:56:34;4.83;;;1.03;;
11006;SDS011;8186;57.652;11.968;2022-10-03T08:59:16;5.00;;;1.10;;
11006;SDS011;8186;57.652;11.968;2022-10-03T09:17:42;5.10;;;0.87;;
11006;SDS011;8186;57.652;11.968;2022-10-03T09:26:45;6.47;;;1.00;;
11006;SDS011;8186;57.652;11.968;2022-10-03T09:29:28;2.87;;;0.77;;
11006;SDS011;8186;57.652;11.968;2022-10-03T09:38:36;4.77;;;1.03;;
11006;SDS011;8186;57.652;11.968;2022-10-03T09:47:50;3.53;;;0.83;;
11006;SDS011;8186;57.652;11.968;2022-10-03T10:02:43;0.93;;;0.60;;
11006;SDS011;8186;57.652;11.968;2022-10-03T10:05:27;6.53;;;1.13;;
11006;SDS011;8186;57.652;11.968;2022-10-03T10:08:10;5.20;;;0.90;;
11006;SDS011;8186;57.652;11.968;2022-10-03T10:11:07;5.40;;;1.13;;
11006;SDS011;8186;57.652;11.968;2022-10-03T10:23:12;3.27;;;0.90;;
11006;SDS011;8186;57.652;11.968;2022-10-03T10:26:00;3.13;;;0.87;;
11006;SDS011;8186;57.652;11.968;2022-10-03T10:28:43;1.90;;;1.00;;
11006;SDS011;8186;57.652;11.968;2022-10-03T10:41:15;5.27;;;1.30;;
11006;SDS011;8186;57.652;11.968;2022-10-03T10:50:11;3.17;;;0.77;;
11006;SDS011;8186;57.652;11.968;2022-10-03T10:59:49;1.97;;;0.90;;
11006;SDS011;8186;57.652;11.968;2022-10-03T11:02:47;5.80;;;1.17;;
11006;SDS011;8186;57.652;11.968;2022-10-03T11:09:18;4.73;;;0.90;;
11006;SDS011;8186;57.652;11.968;2022-10-03T11:36:44;2.60;;;1.20;;
11006;SDS011;8186;57.652;11.968;2022-10-03T11:39:19;5.47;;;1.20;;
11006;SDS011;8186;57.652;11.968;2022-10-03T11:41:52;2.75;;;1.00;;
11006;SDS011;8186;57.652;11.968;2022-10-03T11:44:23;3.17;;;1.10;;
11006;SDS011;8186;57.652;11.968;2022-10-03T11:47:10;1.50;;;0.80;;
11006;SDS011;8186;57.652;11.968;2022-10-03T11:50:17;2.33;;;0.80;;
11006;SDS011;8186;57.652;11.968;2022-10-03T11:52:55;3.13;;;0.88;;
11006;SDS011;8186;57.652;11.968;2022-10-03T11:55:37;3.03;;;0.95;;
11006;SDS011;8186;57.652;11.968;2022-10-03T11:58:13;4.70;;;1.17;;
11006;SDS011;8186;57.652;11.968;2022-10-03T12:00:52;3.53;;;1.07;;
11006;SDS011;8186;57.652;11.968;2022-10-03T12:03:24;2.27;;;0.67;;
11006;SDS011;8186;57.652;11.968;2022-10-03T12:05:55;6.20;;;1.53;;
11006;SDS011;8186;57.652;11.968;2022-10-03T12:08:37;2.30;;;1.13;;
11006;SDS011;8186;57.652;11.968;2022-10-03T12:11:23;7.40;;;1.20;;
11006;SDS011;8186;57.652;11.968;2022-10-03T12:16:47;3.30;;;0.97;;
11006;SDS011;8186;57.652;11.968;2022-10-03T12:19:24;2.23;;;0.97;;
11006;SDS011;8186;57.652;11.968;2022-10-03T12:21:56;5.23;;;1.07;;
11006;SDS011;8186;57.652;11.968;2022-10-03T12:24:24;3.67;;;0.93;;
11006;SDS011;8186;57.652;11.968;2022-10-03T12:26:53;6.78;;;1.25;;
11006;SDS011;8186;57.652;11.968;2022-10-03T12:29:26;5.30;;;1.50;;
11006;SDS011;8186;57.652;11.968;2022-10-03T12:34:46;4.27;;;1.10;;
11006;SDS011;8186;57.652;11.968;2022-10-03T12:37:22;9.75;;;1.33;;
11006;SDS011;8186;57.652;11.968;2022-10-03T12:39:59;2.77;;;1.10;;
11006;SDS011;8186;57.652;11.968;2022-10-03T12:42:30;4.10;;;1.07;;
11006;SDS011;8186;57.652;11.968;2022-10-03T12:45:02;6.63;;;1.13;;
11006;SDS011;8186;57.652;11.968;2022-10-03T12:47:37;6.20;;;0.98;;
11006;SDS011;8186;57.652;11.968;2022-10-03T12:50:17;5.78;;;1.00;;
11006;SDS011;8186;57.652;11.968;2022-10-03T12:52:53;7.78;;;1.40;;
11006;SDS011;8186;57.652;11.968;2022-10-03T12:55:33;3.77;;;1.00;;
11006;SDS011;8186;57.652;11.968;2022-10-03T12:58:02;2.25;;;0.80;;
11006;SDS011;8186;57.652;11.968;2022-10-03T13:00:35;1.65;;;0.82;;
11006;SDS011;8186;57.652;11.968;2022-10-03T13:03:15;5.13;;;1.00;;
11006;SDS011;8186;57.652;11.968;2022-10-03T13:08:50;4.63;;;1.20;;
11006;SDS011;8186;57.652;11.968;2022-10-03T13:11:27;3.45;;;0.95;;
11006;SDS011;8186;57.652;11.968;2022-10-03T13:14:03;2.80;;;0.70;;
11006;SDS011;8186;57.652;11.968;2022-10-03T13:16:37;4.43;;;0.80;;
11006;SDS011;8186;57.652;11.968;2022-10-03T13:19:08;3.60;;;1.10;;
11006;SDS011;8186;57.652;11.968;2022-10-03T13:24:33;2.75;;;0.90;;
11006;SDS011;8186;57.652;11.968;2022-10-03T13:27:19;6.13;;;0.80;;
11006;SDS011;8186;57.652;11.968;2022-10-03T13:29:53;3.35;;;1.00;;
11006;SDS011;8186;57.652;11.968;2022-10-03T13:32:31;2.35;;;1.02;;
11006;SDS011;8186;57.652;11.968;2022-10-03T13:35:09;2.67;;;0.90;;
11006;SDS011;8186;57.652;11.968;2022-10-03T13:41:24;3.28;;;1.20;;
11006;SDS011;8186;57.652;11.968;2022-10-03T13:43:57;3.42;;;1.38;;
11006;SDS011;8186;57.652;11.968;2022-10-03T13:46:26;5.95;;;1.23;;
11006;SDS011;8186;57.652;11.968;2022-10-03T13:48:59;3.13;;;1.00;;
11006;SDS011;8186;57.652;11.968;2022-10-03T13:51:33;4.00;;;0.98;;
11006;SDS011;8186;57.652;11.968;2022-10-03T13:54:10;2.33;;;0.80;;
11006;SDS011;8186;57.652;11.968;2022-10-03T13:56:50;2.45;;;1.25;;
11006;SDS011;8186;57.652;11.968;2022-10-03T13:59:26;4.68;;;1.23;;
11006;SDS011;8186;57.652;11.968;2022-10-03T14:01:59;4.57;;;1.10;;
11006;SDS011;8186;57.652;11.968;2022-10-03T14:04:45;4.60;;;1.42;;
11006;SDS011;8186;57.652;11.968;2022-10-03T14:07:20;6.57;;;1.00;;
11006;SDS011;8186;57.652;11.968;2022-10-03T14:10:04;5.43;;;1.50;;
11006;SDS011;8186;57.652;11.968;2022-10-03T14:12:40;3.03;;;1.30;;
11006;SDS011;8186;57.652;11.968;2022-10-03T14:15:19;3.63;;;1.05;;
11006;SDS011;8186;57.652;11.968;2022-10-03T14:17:53;2.87;;;0.97;;
11006;SDS011;8186;57.652;11.968;2022-10-03T14:20:27;4.38;;;0.98;;
11006;SDS011;8186;57.652;11.968;2022-10-03T14:23:01;4.43;;;1.07;;
11006;SDS011;8186;57.652;11.968;2022-10-03T14:25:35;4.33;;;1.20;;
11006;SDS011;8186;57.652;11.968;2022-10-03T14:28:06;4.13;;;1.00;;
11006;SDS011;8186;57.652;11.968;2022-10-03T14:30:42;6.03;;;1.10;;
11006;SDS011;8186;57.652;11.968;2022-10-03T14:33:16;3.77;;;1.20;;
11006;SDS011;8186;57.652;11.968;2022-10-03T14:35:52;7.40;;;1.20;;
11006;SDS011;8186;57.652;11.968;2022-10-03T14:38:29;3.40;;;1.13;;
11006;SDS011;8186;57.652;11.968;2022-10-03T14:41:24;5.27;;;0.90;;
11006;SDS011;8186;57.652;11.968;2022-10-03T14:43:57;3.07;;;0.93;;
11006;SDS011;8186;57.652;11.968;2022-10-03T14:46:25;5.33;;;1.10;;
11006;SDS011;8186;57.652;11.968;2022-10-03T14:48:55;5.23;;;1.10;;
11006;SDS011;8186;57.652;11.968;2022-10-03T14:51:25;6.70;;;1.67;;
11006;SDS011;8186;57.652;11.968;2022-10-03T14:53:56;3.67;;;1.10;;
11006;SDS011;8186;57.652;11.968;2022-10-03T14:56:26;3.73;;;1.10;;
11006;SDS011;8186;57.652;11.968;2022-10-03T14:58:54;5.07;;;1.17;;
11006;SDS011;8186;57.652;11.968;2022-10-03T15:01:22;6.57;;;1.37;;
11006;SDS011;8186;57.652;11.968;2022-10-03T15:03:53;3.20;;;1.00;;
11006;SDS011;8186;57.652;11.968;2022-10-03T15:06:34;3.17;;;1.20;;
11006;SDS011;8186;57.652;11.968;2022-10-03T15:09:18;5.90;;;1.37;;
11006;SDS011;8186;57.652;11.968;2022-10-03T15:11:48;2.27;;;1.13;;
11006;SDS011;8186;57.652;11.968;2022-10-03T15:14:19;5.70;;;1.03;;
11006;SDS011;8186;57.652;11.968;2022-10-03T15:16:48;5.20;;;1.20;;
11006;SDS011;8186;57.652;11.968;2022-10-03T15:19:18;4.77;;;1.17;;
11006;SDS011;8186;57.652;11.968;2022-10-03T15:21:51;7.60;;;1.37;;
11006;SDS011;8186;57.652;11.968;2022-10-03T15:24:19;3.73;;;1.00;;
11006;SDS011;8186;57.652;11.968;2022-10-03T15:26:49;4.40;;;0.97;;
11006;SDS011;8186;57.652;11.968;2022-10-03T15:29:17;5.27;;;1.10;;
11006;SDS011;8186;57.652;11.968;2022-10-03T15:31:45;2.73;;;0.80;;
11006;SDS011;8186;57.652;11.968;2022-10-03T15:34:14;3.50;;;0.97;;
11006;SDS011;8186;57.652;11.968;2022-10-03T15:36:44;6.10;;;0.90;;
11006;SDS011;8186;57.652;11.968;2022-10-03T15:39:19;4.73;;;1.33;;
11006;SDS011;8186;57.652;11.968;2022-10-03T15:41:50;4.77;;;1.13;;
11006;SDS011;8186;57.652;11.968;2022-10-03T15:44:20;8.73;;;1.23;;
11006;SDS011;8186;57.652;11.968;2022-10-03T15:46:51;5.17;;;1.37;;
11006;SDS011;8186;57.652;11.968;2022-10-03T15:49:20;2.03;;;0.87;;
11006;SDS011;8186;57.652;11.968;2022-10-03T15:51:50;2.40;;;0.80;;
11006;SDS011;8186;57.652;11.968;2022-10-03T15:54:20;5.80;;;1.57;;
11006;SDS011;8186;57.652;11.968;2022-10-03T15:56:49;4.17;;;0.97;;
11006;SDS011;8186;57.652;11.968;2022-10-03T15:59:20;3.23;;;1.23;;
11006;SDS011;8186;57.652;11.968;2022-10-03T16:01:49;2.60;;;0.90;;
11006;SDS011;8186;57.652;11.968;2022-10-03T16:04:19;4.10;;;0.97;;
11006;SDS011;8186;57.652;11.968;2022-10-03T16:06:51;8.10;;;0.90;;
11006;SDS011;8186;57.652;11.968;2022-10-03T16:09:29;3.10;;;0.90;;
11006;SDS011;8186;57.652;11.968;2022-10-03T16:12:06;4.27;;;0.80;;
11006;SDS011;8186;57.652;11.968;2022-10-03T16:14:42;2.93;;;0.80;;
11006;SDS011;8186;57.652;11.968;2022-10-03T16:17:12;2.55;;;1.00;;
11006;SDS011;8186;57.652;11.968;2022-10-03T16:19:41;5.43;;;0.90;;
11006;SDS011;8186;57.652;11.968;2022-10-03T16:22:18;6.00;;;1.00;;
11006;SDS011;8186;57.652;11.968;2022-10-03T16:24:52;3.60;;;0.97;;
11006;SDS011;8186;57.652;11.968;2022-10-03T16:27:24;2.73;;;1.07;;
11006;SDS011;8186;57.652;11.968;2022-10-03T16:29:53;3.20;;;1.30;;
11006;SDS011;8186;57.652;11.968;2022-10-03T16:32:37;4.97;;;0.80;;
11006;SDS011;8186;57.652;11.968;2022-10-03T16:35:13;3.40;;;1.10;;
11006;SDS011;8186;57.652;11.968;2022-10-03T16:37:49;7.47;;;0.93;;
11006;SDS011;8186;57.652;11.968;2022-10-03T16:40:20;3.03;;;1.07;;
11006;SDS011;8186;57.652;11.968;2022-10-03T16:42:49;5.90;;;0.93;;
11006;SDS011;8186;57.652;11.968;2022-10-03T16:45:20;3.97;;;0.97;;
11006;SDS011;8186;57.652;11.968;2022-10-03T16:47:51;5.77;;;1.07;;
11006;SDS011;8186;57.652;11.968;2022-10-03T16:50:33;6.43;;;1.00;;
11006;SDS011;8186;57.652;11.968;2022-10-03T16:53:01;6.87;;;1.63;;
11006;SDS011;8186;57.652;11.968;2022-10-03T16:55:39;3.90;;;1.20;;
11006;SDS011;8186;57.652;11.968;2022-10-03T16:58:13;2.97;;;1.20;;
11006;SDS011;8186;57.652;11.968;2022-10-03T17:00:48;4.10;;;1.03;;
11006;SDS011;8186;57.652;11.968;2022-10-03T17:03:18;2.40;;;1.00;;
11006;SDS011;8186;57.652;11.968;2022-10-03T17:05:46;4.17;;;1.13;;
11006;SDS011;8186;57.652;11.968;2022-10-03T17:08:14;3.30;;;0.80;;
11006;SDS011;8186;57.652;11.968;2022-10-03T17:10:44;8.33;;;1.37;;
11006;SDS011;8186;57.652;11.968;2022-10-03T17:13:19;4.07;;;1.37;;
11006;SDS011;8186;57.652;11.968;2022-10-03T17:15:48;3.80;;;1.13;;
11006;SDS011;8186;57.652;11.968;2022-10-03T17:18:18;3.43;;;1.57;;
11006;SDS011;8186;57.652;11.968;2022-10-03T17:20:48;4.37;;;0.90;;
11006;SDS011;8186;57.652;11.968;2022-10-03T17:23:21;4.10;;;0.97;;
11006;SDS011;8186;57.652;11.968;2022-10-03T17:25:56;3.80;;;1.00;;
11006;SDS011;8186;57.652;11.968;2022-10-03T17:28:29;5.33;;;1.07;;
11006;SDS011;8186;57.652;11.968;2022-10-03T17:31:01;4.13;;;1.20;;
11006;SDS011;8186;57.652;11.968;2022-10-03T17:33:33;4.93;;;1.27;;
11006;SDS011;8186;57.652;11.968;2022-10-03T17:39:21;3.50;;;1.23;;
11006;SDS011;8186;57.652;11.968;2022-10-03T17:45:10;5.60;;;1.20;;
11006;SDS011;8186;57.652;11.968;2022-10-03T17:47:49;3.93;;;1.33;;
11006;SDS011;8186;57.652;11.968;2022-10-03T17:50:21;2.47;;;1.10;;
11006;SDS011;8186;57.652;11.968;2022-10-03T17:52:50;4.87;;;1.37;;
11006;SDS011;8186;57.652;11.968;2022-10-03T17:55:20;4.60;;;1.63;;
11006;SDS011;8186;57.652;11.968;2022-10-03T17:57:53;3.77;;;2.00;;
11006;SDS011;8186;57.652;11.968;2022-10-03T18:00:22;3.97;;;2.03;;
11006;SDS011;8186;57.652;11.968;2022-10-03T18:02:57;4.63;;;2.27;;
11006;SDS011;8186;57.652;11.968;2022-10-03T18:05:27;3.83;;;2.77;;
11006;SDS011;8186;57.652;11.968;2022-10-03T18:07:55;5.70;;;3.10;;
11006;SDS011;8186;57.652;11.968;2022-10-03T18:10:28;7.00;;;3.90;;
11006;SDS011;8186;57.652;11.968;2022-10-03T18:12:58;6.43;;;3.30;;
11006;SDS011;8186;57.652;11.968;2022-10-03T18:15:42;8.80;;;3.17;;
11006;SDS011;8186;57.652;11.968;2022-10-03T18:18:31;6.13;;;2.83;;
11006;SDS011;8186;57.652;11.968;2022-10-03T18:21:13;7.87;;;2.37;;
11006;SDS011;8186;57.652;11.968;2022-10-03T18:23:49;5.80;;;2.60;;
11006;SDS011;8186;57.652;11.968;2022-10-03T18:26:27;5.53;;;2.10;;
11006;SDS011;8186;57.652;11.968;2022-10-03T18:29:00;4.07;;;1.50;;
11006;SDS011;8186;57.652;11.968;2022-10-03T18:31:36;1.80;;;1.20;;
11006;SDS011;8186;57.652;11.968;2022-10-03T18:34:05;3.73;;;1.47;;
11006;SDS011;8186;57.652;11.968;2022-10-03T18:36:34;2.70;;;1.50;;
11006;SDS011;8186;57.652;11.968;2022-10-03T18:39:05;4.33;;;1.30;;
11006;SDS011;8186;57.652;11.968;2022-10-03T18:41:33;4.60;;;1.37;;
11006;SDS011;8186;57.652;11.968;2022-10-03T18:44:04;3.23;;;1.23;;
11006;SDS011;8186;57.652;11.968;2022-10-03T18:46:33;4.33;;;1.10;;
11006;SDS011;8186;57.652;11.968;2022-10-03T18:49:04;4.57;;;1.33;;
11006;SDS011;8186;57.652;11.968;2022-10-03T18:51:42;4.57;;;1.63;;
11006;SDS011;8186;57.652;11.968;2022-10-03T18:54:18;8.60;;;1.47;;
11006;SDS011;8186;57.652;11.968;2022-10-03T18:56:58;2.00;;;0.90;;
11006;SDS011;8186;57.652;11.968;2022-10-03T18:59:31;6.70;;;1.77;;
11006;SDS011;8186;57.652;11.968;2022-10-03T19:02:00;5.77;;;1.50;;
11006;SDS011;8186;57.652;11.968;2022-10-03T19:04:34;4.07;;;1.20;;
11006;SDS011;8186;57.652;11.968;2022-10-03T19:07:14;3.30;;;1.07;;
11006;SDS011;8186;57.652;11.968;2022-10-03T19:09:59;2.30;;;1.07;;
11006;SDS011;8186;57.652;11.968;2022-10-03T19:13:02;6.23;;;1.87;;
11006;SDS011;8186;57.652;11.968;2022-10-03T19:15:44;1.63;;;1.20;;
11006;SDS011;8186;57.652;11.968;2022-10-03T19:18:20;4.17;;;1.33;;
11006;SDS011;8186;57.652;11.968;2022-10-03T19:20:50;3.57;;;1.00;;
11006;SDS011;8186;57.652;11.968;2022-10-03T19:23:20;4.97;;;1.60;;
11006;SDS011;8186;57.652;11.968;2022-10-03T19:25:52;2.10;;;1.00;;
11006;SDS011;8186;57.652;11.968;2022-10-03T19:28:22;2.60;;;1.30;;
11006;SDS011;8186;57.652;11.968;2022-10-03T19:30:57;6.03;;;1.40;;
11006;SDS011;8186;57.652;11.968;2022-10-03T19:33:26;4.03;;;1.23;;
11006;SDS011;8186;57.652;11.968;2022-10-03T19:35:57;4.87;;;1.43;;
11006;SDS011;8186;57.652;11.968;2022-10-03T19:38:26;4.10;;;1.30;;
11006;SDS011;8186;57.652;11.968;2022-10-03T19:40:54;4.60;;;1.10;;